sensor_id;sensor_type;location;lat;lon;timestamp;P1;durP1;ratioP1;P2;durP2;ratioP2
7181;SDS011;3632;42.724;23.298;2023-05-13T00:01:57;4.00;;;3.53;;
7181;SDS011;3632;42.724;23.298;2023-05-13T00:04:25;4.53;;;3.80;;
7181;SDS011;3632;42.724;23.298;2023-05-13T00:06:51;5.40;;;3.70;;
7181;SDS011;3632;42.724;23.298;2023-05-13T00:09:18;6.23;;;3.93;;
7181;SDS011;3632;42.724;23.298;2023-05-13T00:11:45;5.47;;;3.37;;
7181;SDS011;3632;42.724;23.298;2023-05-13T00:14:13;6.73;;;3.60;;
7181;SDS011;3632;42.724;23.298;2023-05-13T00:16:40;3.60;;;3.30;;
7181;SDS011;3632;42.724;23.298;2023-05-13T00:19:07;4.57;;;3.50;;
7181;SDS011;3632;42.724;23.298;2023-05-13T00:21:34;5.03;;;3.77;;
7181;SDS011;3632;42.724;23.298;2023-05-13T00:24:00;4.83;;;3.40;;
7181;SDS011;3632;42.724;23.298;2023-05-13T00:26:27;5.07;;;3.53;;
7181;SDS011;3632;42.724;23.298;2023-05-13T00:28:54;4.10;;;3.30;;
7181;SDS011;3632;42.724;23.298;2023-05-13T00:31:22;4.30;;;3.23;;
7181;SDS011;3632;42.724;23.298;2023-05-13T00:33:49;4.13;;;3.27;;
7181;SDS011;3632;42.724;23.298;2023-05-13T00:36:16;6.20;;;3.50;;
7181;SDS011;3632;42.724;23.298;2023-05-13T00:38:43;4.03;;;3.27;;
7181;SDS011;3632;42.724;23.298;2023-05-13T00:41:10;4.30;;;2.90;;
7181;SDS011;3632;42.724;23.298;2023-05-13T00:43:37;4.63;;;3.27;;
7181;SDS011;3632;42.724;23.298;2023-05-13T00:46:04;4.33;;;3.20;;
7181;SDS011;3632;42.724;23.298;2023-05-13T00:48:32;4.13;;;2.90;;
7181;SDS011;3632;42.724;23.298;2023-05-13T00:50:59;3.90;;;2.83;;
7181;SDS011;3632;42.724;23.298;2023-05-13T00:53:26;4.50;;;3.17;;
7181;SDS011;3632;42.724;23.298;2023-05-13T00:55:53;3.13;;;2.63;;
7181;SDS011;3632;42.724;23.298;2023-05-13T00:58:20;4.07;;;2.77;;
7181;SDS011;3632;42.724;23.298;2023-05-13T01:00:49;4.30;;;2.60;;
7181;SDS011;3632;42.724;23.298;2023-05-13T01:03:25;5.13;;;2.50;;
7181;SDS011;3632;42.724;23.298;2023-05-13T01:06:01;3.20;;;2.67;;
7181;SDS011;3632;42.724;23.298;2023-05-13T01:08:34;3.13;;;2.50;;
7181;SDS011;3632;42.724;23.298;2023-05-13T01:11:11;4.73;;;2.77;;
7181;SDS011;3632;42.724;23.298;2023-05-13T01:13:41;2.83;;;2.50;;
7181;SDS011;3632;42.724;23.298;2023-05-13T01:16:13;2.87;;;2.43;;
7181;SDS011;3632;42.724;23.298;2023-05-13T01:18:43;3.00;;;2.70;;
7181;SDS011;3632;42.724;23.298;2023-05-13T01:21:15;5.20;;;2.63;;
7181;SDS011;3632;42.724;23.298;2023-05-13T01:23:43;3.70;;;2.80;;
7181;SDS011;3632;42.724;23.298;2023-05-13T01:26:10;3.90;;;2.47;;
7181;SDS011;3632;42.724;23.298;2023-05-13T01:28:37;2.97;;;2.70;;
7181;SDS011;3632;42.724;23.298;2023-05-13T01:31:03;3.43;;;3.00;;
7181;SDS011;3632;42.724;23.298;2023-05-13T01:33:34;3.37;;;2.93;;
7181;SDS011;3632;42.724;23.298;2023-05-13T01:36:02;4.23;;;3.10;;
7181;SDS011;3632;42.724;23.298;2023-05-13T01:38:29;4.50;;;3.50;;
7181;SDS011;3632;42.724;23.298;2023-05-13T01:40:58;4.83;;;3.57;;
7181;SDS011;3632;42.724;23.298;2023-05-13T01:43:25;5.13;;;4.37;;
7181;SDS011;3632;42.724;23.298;2023-05-13T01:45:52;4.37;;;3.97;;
7181;SDS011;3632;42.724;23.298;2023-05-13T01:48:20;5.77;;;3.97;;
7181;SDS011;3632;42.724;23.298;2023-05-13T01:50:48;4.87;;;4.00;;
7181;SDS011;3632;42.724;23.298;2023-05-13T01:53:14;5.60;;;4.27;;
7181;SDS011;3632;42.724;23.298;2023-05-13T01:55:41;6.63;;;4.60;;
7181;SDS011;3632;42.724;23.298;2023-05-13T01:58:09;6.20;;;4.43;;
7181;SDS011;3632;42.724;23.298;2023-05-13T02:00:36;5.20;;;4.27;;
7181;SDS011;3632;42.724;23.298;2023-05-13T02:03:03;5.73;;;4.77;;
7181;SDS011;3632;42.724;23.298;2023-05-13T02:05:30;5.03;;;4.30;;
7181;SDS011;3632;42.724;23.298;2023-05-13T02:07:57;6.00;;;4.70;;
7181;SDS011;3632;42.724;23.298;2023-05-13T02:10:24;6.83;;;4.83;;
7181;SDS011;3632;42.724;23.298;2023-05-13T02:12:51;5.83;;;4.90;;
7181;SDS011;3632;42.724;23.298;2023-05-13T02:15:19;6.70;;;5.10;;
7181;SDS011;3632;42.724;23.298;2023-05-13T02:17:46;5.57;;;4.30;;
7181;SDS011;3632;42.724;23.298;2023-05-13T02:20:13;5.10;;;4.70;;
7181;SDS011;3632;42.724;23.298;2023-05-13T02:22:41;5.53;;;5.03;;
7181;SDS011;3632;42.724;23.298;2023-05-13T02:25:08;5.83;;;5.17;;
7181;SDS011;3632;42.724;23.298;2023-05-13T02:27:35;6.00;;;5.00;;
7181;SDS011;3632;42.724;23.298;2023-05-13T02:30:02;8.40;;;4.97;;
7181;SDS011;3632;42.724;23.298;2023-05-13T02:32:31;6.43;;;5.03;;
7181;SDS011;3632;42.724;23.298;2023-05-13T02:34:57;8.10;;;4.97;;
7181;SDS011;3632;42.724;23.298;2023-05-13T02:37:24;6.10;;;5.23;;
7181;SDS011;3632;42.724;23.298;2023-05-13T02:39:51;5.50;;;5.00;;
7181;SDS011;3632;42.724;23.298;2023-05-13T02:42:18;6.93;;;5.13;;
7181;SDS011;3632;42.724;23.298;2023-05-13T02:44:45;7.37;;;5.80;;
7181;SDS011;3632;42.724;23.298;2023-05-13T02:47:12;7.07;;;5.33;;
7181;SDS011;3632;42.724;23.298;2023-05-13T02:49:40;6.43;;;4.90;;
7181;SDS011;3632;42.724;23.298;2023-05-13T02:52:07;6.67;;;4.70;;
7181;SDS011;3632;42.724;23.298;2023-05-13T02:54:34;5.43;;;4.63;;
7181;SDS011;3632;42.724;23.298;2023-05-13T02:57:01;4.40;;;4.00;;
7181;SDS011;3632;42.724;23.298;2023-05-13T02:59:28;5.53;;;4.17;;
7181;SDS011;3632;42.724;23.298;2023-05-13T03:01:55;6.37;;;4.80;;
7181;SDS011;3632;42.724;23.298;2023-05-13T03:04:22;5.50;;;4.17;;
7181;SDS011;3632;42.724;23.298;2023-05-13T03:06:51;6.00;;;4.50;;
7181;SDS011;3632;42.724;23.298;2023-05-13T03:09:18;5.17;;;4.20;;
7181;SDS011;3632;42.724;23.298;2023-05-13T03:11:45;5.13;;;4.03;;
7181;SDS011;3632;42.724;23.298;2023-05-13T03:14:11;7.50;;;4.70;;
7181;SDS011;3632;42.724;23.298;2023-05-13T03:16:38;4.60;;;4.10;;
7181;SDS011;3632;42.724;23.298;2023-05-13T03:19:06;5.60;;;4.40;;
7181;SDS011;3632;42.724;23.298;2023-05-13T03:21:33;7.60;;;5.80;;
7181;SDS011;3632;42.724;23.298;2023-05-13T03:24:02;6.87;;;5.47;;
7181;SDS011;3632;42.724;23.298;2023-05-13T03:26:29;4.73;;;4.13;;
7181;SDS011;3632;42.724;23.298;2023-05-13T03:28:56;4.30;;;3.90;;
7181;SDS011;3632;42.724;23.298;2023-05-13T03:31:23;6.23;;;3.97;;
7181;SDS011;3632;42.724;23.298;2023-05-13T03:33:50;4.70;;;4.00;;
7181;SDS011;3632;42.724;23.298;2023-05-13T03:36:17;7.43;;;3.93;;
7181;SDS011;3632;42.724;23.298;2023-05-13T03:38:43;4.43;;;3.30;;
7181;SDS011;3632;42.724;23.298;2023-05-13T03:41:12;4.13;;;3.33;;
7181;SDS011;3632;42.724;23.298;2023-05-13T03:43:41;3.37;;;2.90;;
7181;SDS011;3632;42.724;23.298;2023-05-13T03:46:08;4.20;;;3.50;;
7181;SDS011;3632;42.724;23.298;2023-05-13T03:48:35;3.57;;;3.10;;
7181;SDS011;3632;42.724;23.298;2023-05-13T03:51:02;4.23;;;2.87;;
7181;SDS011;3632;42.724;23.298;2023-05-13T03:53:29;3.57;;;3.27;;
7181;SDS011;3632;42.724;23.298;2023-05-13T03:55:56;6.10;;;2.90;;
7181;SDS011;3632;42.724;23.298;2023-05-13T03:58:25;5.43;;;3.57;;
7181;SDS011;3632;42.724;23.298;2023-05-13T04:00:51;4.27;;;3.20;;
7181;SDS011;3632;42.724;23.298;2023-05-13T04:03:18;4.23;;;3.23;;
7181;SDS011;3632;42.724;23.298;2023-05-13T04:05:45;3.20;;;2.70;;
7181;SDS011;3632;42.724;23.298;2023-05-13T04:08:13;3.77;;;3.13;;
7181;SDS011;3632;42.724;23.298;2023-05-13T04:10:40;5.27;;;3.20;;
7181;SDS011;3632;42.724;23.298;2023-05-13T04:13:07;6.73;;;3.00;;
7181;SDS011;3632;42.724;23.298;2023-05-13T04:15:35;3.83;;;3.13;;
7181;SDS011;3632;42.724;23.298;2023-05-13T04:18:02;3.00;;;2.70;;
7181;SDS011;3632;42.724;23.298;2023-05-13T04:20:29;3.50;;;3.20;;
7181;SDS011;3632;42.724;23.298;2023-05-13T04:22:56;4.53;;;3.27;;
7181;SDS011;3632;42.724;23.298;2023-05-13T04:25:23;4.73;;;2.90;;
7181;SDS011;3632;42.724;23.298;2023-05-13T04:27:50;3.50;;;3.20;;
7181;SDS011;3632;42.724;23.298;2023-05-13T04:30:17;6.43;;;3.20;;
7181;SDS011;3632;42.724;23.298;2023-05-13T04:32:45;5.50;;;3.30;;
7181;SDS011;3632;42.724;23.298;2023-05-13T04:35:12;5.83;;;3.17;;
7181;SDS011;3632;42.724;23.298;2023-05-13T04:37:39;5.83;;;3.50;;
7181;SDS011;3632;42.724;23.298;2023-05-13T04:40:06;6.53;;;3.40;;
7181;SDS011;3632;42.724;23.298;2023-05-13T04:42:34;12.97;;;8.97;;
7181;SDS011;3632;42.724;23.298;2023-05-13T04:45:01;5.13;;;3.97;;
7181;SDS011;3632;42.724;23.298;2023-05-13T04:47:27;4.77;;;3.17;;
7181;SDS011;3632;42.724;23.298;2023-05-13T04:49:56;11.53;;;4.03;;
7181;SDS011;3632;42.724;23.298;2023-05-13T04:52:22;11.13;;;4.37;;
7181;SDS011;3632;42.724;23.298;2023-05-13T04:54:50;7.53;;;3.73;;
7181;SDS011;3632;42.724;23.298;2023-05-13T04:57:17;6.80;;;3.80;;
7181;SDS011;3632;42.724;23.298;2023-05-13T04:59:44;6.30;;;3.70;;
7181;SDS011;3632;42.724;23.298;2023-05-13T05:02:11;5.50;;;3.30;;
7181;SDS011;3632;42.724;23.298;2023-05-13T05:04:37;5.03;;;3.60;;
7181;SDS011;3632;42.724;23.298;2023-05-13T05:07:06;4.37;;;3.10;;
7181;SDS011;3632;42.724;23.298;2023-05-13T05:09:36;4.07;;;3.43;;
7181;SDS011;3632;42.724;23.298;2023-05-13T05:12:03;3.70;;;3.10;;
7181;SDS011;3632;42.724;23.298;2023-05-13T05:14:31;4.17;;;3.10;;
7181;SDS011;3632;42.724;23.298;2023-05-13T05:16:58;5.20;;;3.50;;
7181;SDS011;3632;42.724;23.298;2023-05-13T05:19:25;8.67;;;3.80;;
7181;SDS011;3632;42.724;23.298;2023-05-13T05:21:51;6.47;;;3.30;;
7181;SDS011;3632;42.724;23.298;2023-05-13T05:24:20;5.80;;;2.60;;
7181;SDS011;3632;42.724;23.298;2023-05-13T05:26:46;4.30;;;2.80;;
7181;SDS011;3632;42.724;23.298;2023-05-13T05:29:13;4.23;;;2.90;;
7181;SDS011;3632;42.724;23.298;2023-05-13T05:31:40;3.63;;;2.50;;
7181;SDS011;3632;42.724;23.298;2023-05-13T05:34:07;2.87;;;2.57;;
7181;SDS011;3632;42.724;23.298;2023-05-13T05:36:34;4.20;;;2.80;;
7181;SDS011;3632;42.724;23.298;2023-05-13T05:39:01;3.77;;;3.10;;
7181;SDS011;3632;42.724;23.298;2023-05-13T05:41:30;4.93;;;3.20;;
7181;SDS011;3632;42.724;23.298;2023-05-13T05:43:57;6.83;;;3.37;;
7181;SDS011;3632;42.724;23.298;2023-05-13T05:46:24;4.30;;;3.50;;
7181;SDS011;3632;42.724;23.298;2023-05-13T05:48:51;4.30;;;3.30;;
7181;SDS011;3632;42.724;23.298;2023-05-13T05:51:18;5.57;;;3.67;;
7181;SDS011;3632;42.724;23.298;2023-05-13T05:53:45;6.77;;;3.60;;
7181;SDS011;3632;42.724;23.298;2023-05-13T05:56:12;5.93;;;3.53;;
7181;SDS011;3632;42.724;23.298;2023-05-13T05:58:41;5.00;;;3.53;;
7181;SDS011;3632;42.724;23.298;2023-05-13T06:01:07;4.33;;;3.57;;
7181;SDS011;3632;42.724;23.298;2023-05-13T06:03:34;6.07;;;3.47;;
7181;SDS011;3632;42.724;23.298;2023-05-13T06:06:02;5.97;;;3.40;;
7181;SDS011;3632;42.724;23.298;2023-05-13T06:08:33;6.87;;;3.90;;
7181;SDS011;3632;42.724;23.298;2023-05-13T06:11:03;5.50;;;4.40;;
7181;SDS011;3632;42.724;23.298;2023-05-13T06:13:30;4.63;;;4.00;;
7181;SDS011;3632;42.724;23.298;2023-05-13T06:15:58;7.27;;;3.60;;
7181;SDS011;3632;42.724;23.298;2023-05-13T06:18:26;5.90;;;3.37;;
7181;SDS011;3632;42.724;23.298;2023-05-13T06:20:53;3.97;;;3.40;;
7181;SDS011;3632;42.724;23.298;2023-05-13T06:23:20;5.07;;;3.17;;
7181;SDS011;3632;42.724;23.298;2023-05-13T06:25:47;3.97;;;3.30;;
7181;SDS011;3632;42.724;23.298;2023-05-13T06:28:14;6.30;;;3.30;;
7181;SDS011;3632;42.724;23.298;2023-05-13T06:30:40;7.60;;;3.27;;
7181;SDS011;3632;42.724;23.298;2023-05-13T06:33:11;4.17;;;3.00;;
7181;SDS011;3632;42.724;23.298;2023-05-13T06:35:38;5.20;;;3.10;;
7181;SDS011;3632;42.724;23.298;2023-05-13T06:38:05;4.37;;;2.70;;
7181;SDS011;3632;42.724;23.298;2023-05-13T06:40:32;5.60;;;2.70;;
7181;SDS011;3632;42.724;23.298;2023-05-13T06:42:59;3.13;;;2.53;;
7181;SDS011;3632;42.724;23.298;2023-05-13T06:45:26;7.70;;;2.83;;
7181;SDS011;3632;42.724;23.298;2023-05-13T06:47:53;7.70;;;3.50;;
7181;SDS011;3632;42.724;23.298;2023-05-13T06:50:23;3.60;;;2.90;;
7181;SDS011;3632;42.724;23.298;2023-05-13T06:52:50;3.93;;;2.30;;
7181;SDS011;3632;42.724;23.298;2023-05-13T06:55:17;3.43;;;2.20;;
7181;SDS011;3632;42.724;23.298;2023-05-13T06:57:43;3.87;;;2.40;;
7181;SDS011;3632;42.724;23.298;2023-05-13T07:00:11;5.63;;;2.63;;
7181;SDS011;3632;42.724;23.298;2023-05-13T07:02:39;3.53;;;2.30;;
7181;SDS011;3632;42.724;23.298;2023-05-13T07:05:06;4.50;;;2.70;;
7181;SDS011;3632;42.724;23.298;2023-05-13T07:07:35;4.17;;;2.40;;
7181;SDS011;3632;42.724;23.298;2023-05-13T07:10:02;3.20;;;2.50;;
7181;SDS011;3632;42.724;23.298;2023-05-13T07:12:30;8.13;;;2.77;;
7181;SDS011;3632;42.724;23.298;2023-05-13T07:14:57;5.87;;;2.60;;
7181;SDS011;3632;42.724;23.298;2023-05-13T07:17:24;4.57;;;2.33;;
7181;SDS011;3632;42.724;23.298;2023-05-13T07:19:51;4.60;;;2.60;;
7181;SDS011;3632;42.724;23.298;2023-05-13T07:22:17;3.20;;;2.77;;
7181;SDS011;3632;42.724;23.298;2023-05-13T07:24:46;5.73;;;3.23;;
7181;SDS011;3632;42.724;23.298;2023-05-13T07:27:12;4.20;;;2.83;;
7181;SDS011;3632;42.724;23.298;2023-05-13T07:29:39;3.73;;;2.50;;
7181;SDS011;3632;42.724;23.298;2023-05-13T07:32:06;5.67;;;2.40;;
7181;SDS011;3632;42.724;23.298;2023-05-13T07:34:33;5.23;;;2.97;;
7181;SDS011;3632;42.724;23.298;2023-05-13T07:37:00;3.27;;;2.70;;
7181;SDS011;3632;42.724;23.298;2023-05-13T07:39:28;3.90;;;2.93;;
7181;SDS011;3632;42.724;23.298;2023-05-13T07:41:56;6.03;;;3.10;;
7181;SDS011;3632;42.724;23.298;2023-05-13T07:44:23;5.77;;;3.03;;
7181;SDS011;3632;42.724;23.298;2023-05-13T07:46:51;6.50;;;3.53;;
7181;SDS011;3632;42.724;23.298;2023-05-13T07:49:17;6.63;;;3.73;;
7181;SDS011;3632;42.724;23.298;2023-05-13T07:51:45;7.63;;;3.90;;
7181;SDS011;3632;42.724;23.298;2023-05-13T07:54:12;4.97;;;3.53;;
7181;SDS011;3632;42.724;23.298;2023-05-13T07:56:39;5.97;;;3.63;;
7181;SDS011;3632;42.724;23.298;2023-05-13T07:59:09;7.00;;;3.73;;
7181;SDS011;3632;42.724;23.298;2023-05-13T08:01:36;7.20;;;4.23;;
7181;SDS011;3632;42.724;23.298;2023-05-13T08:04:03;8.00;;;4.53;;
7181;SDS011;3632;42.724;23.298;2023-05-13T08:06:30;5.47;;;4.50;;
7181;SDS011;3632;42.724;23.298;2023-05-13T08:08:57;6.73;;;5.70;;
7181;SDS011;3632;42.724;23.298;2023-05-13T08:11:24;6.97;;;4.83;;
7181;SDS011;3632;42.724;23.298;2023-05-13T08:13:51;5.70;;;4.00;;
7181;SDS011;3632;42.724;23.298;2023-05-13T08:16:19;6.73;;;4.23;;
7181;SDS011;3632;42.724;23.298;2023-05-13T08:18:46;6.67;;;4.40;;
7181;SDS011;3632;42.724;23.298;2023-05-13T08:21:13;6.33;;;4.37;;
7181;SDS011;3632;42.724;23.298;2023-05-13T08:23:40;7.53;;;4.40;;
7181;SDS011;3632;42.724;23.298;2023-05-13T08:26:07;10.23;;;5.20;;
7181;SDS011;3632;42.724;23.298;2023-05-13T08:28:34;6.53;;;4.07;;
7181;SDS011;3632;42.724;23.298;2023-05-13T08:31:00;9.60;;;4.30;;
7181;SDS011;3632;42.724;23.298;2023-05-13T08:33:29;7.43;;;4.30;;
7181;SDS011;3632;42.724;23.298;2023-05-13T08:35:56;7.83;;;4.47;;
7181;SDS011;3632;42.724;23.298;2023-05-13T08:38:24;9.60;;;4.13;;
7181;SDS011;3632;42.724;23.298;2023-05-13T08:40:51;10.33;;;4.43;;
7181;SDS011;3632;42.724;23.298;2023-05-13T08:43:18;7.07;;;4.50;;
7181;SDS011;3632;42.724;23.298;2023-05-13T08:45:46;5.20;;;4.70;;
7181;SDS011;3632;42.724;23.298;2023-05-13T08:48:14;6.47;;;4.80;;
7181;SDS011;3632;42.724;23.298;2023-05-13T08:50:45;5.30;;;4.50;;
7181;SDS011;3632;42.724;23.298;2023-05-13T08:53:13;6.17;;;4.20;;
7181;SDS011;3632;42.724;23.298;2023-05-13T08:55:42;5.13;;;4.60;;
7181;SDS011;3632;42.724;23.298;2023-05-13T08:58:09;5.60;;;5.00;;
7181;SDS011;3632;42.724;23.298;2023-05-13T09:00:37;8.83;;;6.43;;
7181;SDS011;3632;42.724;23.298;2023-05-13T09:03:04;7.80;;;5.73;;
7181;SDS011;3632;42.724;23.298;2023-05-13T09:05:32;9.47;;;6.07;;
7181;SDS011;3632;42.724;23.298;2023-05-13T09:08:03;6.53;;;5.53;;
7181;SDS011;3632;42.724;23.298;2023-05-13T09:10:34;7.67;;;5.37;;
7181;SDS011;3632;42.724;23.298;2023-05-13T09:13:01;9.47;;;5.57;;
7181;SDS011;3632;42.724;23.298;2023-05-13T09:15:28;5.90;;;5.30;;
7181;SDS011;3632;42.724;23.298;2023-05-13T09:17:57;6.00;;;5.40;;
7181;SDS011;3632;42.724;23.298;2023-05-13T09:20:26;8.57;;;6.10;;
7181;SDS011;3632;42.724;23.298;2023-05-13T09:22:54;7.20;;;5.53;;
7181;SDS011;3632;42.724;23.298;2023-05-13T09:25:23;6.87;;;5.87;;
7181;SDS011;3632;42.724;23.298;2023-05-13T09:27:51;6.50;;;5.73;;
7181;SDS011;3632;42.724;23.298;2023-05-13T09:30:21;7.30;;;5.47;;
7181;SDS011;3632;42.724;23.298;2023-05-13T09:33:03;6.87;;;5.77;;
7181;SDS011;3632;42.724;23.298;2023-05-13T09:35:31;8.57;;;5.90;;
7181;SDS011;3632;42.724;23.298;2023-05-13T09:37:59;6.90;;;6.03;;
7181;SDS011;3632;42.724;23.298;2023-05-13T09:40:27;6.43;;;5.67;;
7181;SDS011;3632;42.724;23.298;2023-05-13T09:42:55;9.37;;;6.63;;
7181;SDS011;3632;42.724;23.298;2023-05-13T09:45:25;8.20;;;5.70;;
7181;SDS011;3632;42.724;23.298;2023-05-13T09:47:52;7.77;;;5.60;;
7181;SDS011;3632;42.724;23.298;2023-05-13T09:50:21;7.80;;;5.80;;
7181;SDS011;3632;42.724;23.298;2023-05-13T09:52:48;7.37;;;5.70;;
7181;SDS011;3632;42.724;23.298;2023-05-13T09:55:15;8.73;;;5.80;;
7181;SDS011;3632;42.724;23.298;2023-05-13T09:57:44;6.97;;;5.73;;
7181;SDS011;3632;42.724;23.298;2023-05-13T10:00:11;6.70;;;5.47;;
7181;SDS011;3632;42.724;23.298;2023-05-13T10:02:39;6.17;;;5.40;;
7181;SDS011;3632;42.724;23.298;2023-05-13T10:05:06;8.17;;;5.63;;
7181;SDS011;3632;42.724;23.298;2023-05-13T10:07:35;7.77;;;5.67;;
7181;SDS011;3632;42.724;23.298;2023-05-13T10:10:04;6.70;;;6.10;;
7181;SDS011;3632;42.724;23.298;2023-05-13T10:12:34;7.10;;;6.40;;
7181;SDS011;3632;42.724;23.298;2023-05-13T10:15:05;9.40;;;7.03;;
7181;SDS011;3632;42.724;23.298;2023-05-13T10:17:33;9.00;;;6.50;;
7181;SDS011;3632;42.724;23.298;2023-05-13T10:20:01;7.23;;;6.10;;
7181;SDS011;3632;42.724;23.298;2023-05-13T10:22:31;7.87;;;6.30;;
7181;SDS011;3632;42.724;23.298;2023-05-13T10:24:59;6.47;;;5.73;;
7181;SDS011;3632;42.724;23.298;2023-05-13T10:27:27;7.77;;;5.40;;
7181;SDS011;3632;42.724;23.298;2023-05-13T10:29:55;7.50;;;5.37;;
7181;SDS011;3632;42.724;23.298;2023-05-13T10:32:28;9.20;;;7.40;;
7181;SDS011;3632;42.724;23.298;2023-05-13T10:34:58;7.10;;;6.17;;
7181;SDS011;3632;42.724;23.298;2023-05-13T10:40:28;11.87;;;7.60;;
7181;SDS011;3632;42.724;23.298;2023-05-13T10:43:09;8.20;;;6.43;;
7181;SDS011;3632;42.724;23.298;2023-05-13T10:45:45;8.90;;;6.03;;
7181;SDS011;3632;42.724;23.298;2023-05-13T10:48:21;8.40;;;5.83;;
7181;SDS011;3632;42.724;23.298;2023-05-13T10:50:51;6.57;;;5.97;;
7181;SDS011;3632;42.724;23.298;2023-05-13T10:53:22;7.53;;;5.70;;
7181;SDS011;3632;42.724;23.298;2023-05-13T10:55:54;8.23;;;6.27;;
7181;SDS011;3632;42.724;23.298;2023-05-13T10:58:27;7.57;;;6.40;;
7181;SDS011;3632;42.724;23.298;2023-05-13T11:03:53;10.63;;;7.10;;
7181;SDS011;3632;42.724;23.298;2023-05-13T11:06:27;8.80;;;6.70;;
7181;SDS011;3632;42.724;23.298;2023-05-13T11:08:57;6.83;;;6.13;;
7181;SDS011;3632;42.724;23.298;2023-05-13T11:11:26;7.13;;;6.30;;
7181;SDS011;3632;42.724;23.298;2023-05-13T11:14:07;10.97;;;5.83;;
7181;SDS011;3632;42.724;23.298;2023-05-13T11:16:43;8.93;;;5.27;;
7181;SDS011;3632;42.724;23.298;2023-05-13T11:19:21;6.40;;;5.20;;
7181;SDS011;3632;42.724;23.298;2023-05-13T11:21:52;7.50;;;6.00;;
7181;SDS011;3632;42.724;23.298;2023-05-13T11:24:32;12.43;;;5.73;;
7181;SDS011;3632;42.724;23.298;2023-05-13T11:27:12;7.47;;;6.30;;
7181;SDS011;3632;42.724;23.298;2023-05-13T11:29:55;8.20;;;6.23;;
7181;SDS011;3632;42.724;23.298;2023-05-13T11:35:24;6.73;;;6.03;;
7181;SDS011;3632;42.724;23.298;2023-05-13T11:37:57;8.13;;;6.03;;
7181;SDS011;3632;42.724;23.298;2023-05-13T11:40:25;7.03;;;5.50;;
7181;SDS011;3632;42.724;23.298;2023-05-13T11:42:56;9.43;;;5.30;;
7181;SDS011;3632;42.724;23.298;2023-05-13T11:45:24;5.30;;;4.90;;
7181;SDS011;3632;42.724;23.298;2023-05-13T11:47:52;7.53;;;5.13;;
7181;SDS011;3632;42.724;23.298;2023-05-13T11:50:25;8.23;;;5.73;;
7181;SDS011;3632;42.724;23.298;2023-05-13T11:52:54;7.27;;;5.37;;
7181;SDS011;3632;42.724;23.298;2023-05-13T11:55:25;8.37;;;6.77;;
7181;SDS011;3632;42.724;23.298;2023-05-13T11:57:53;8.83;;;5.97;;
7181;SDS011;3632;42.724;23.298;2023-05-13T12:00:23;13.53;;;8.50;;
7181;SDS011;3632;42.724;23.298;2023-05-13T12:02:51;6.43;;;5.77;;
7181;SDS011;3632;42.724;23.298;2023-05-13T12:05:19;9.07;;;6.77;;
7181;SDS011;3632;42.724;23.298;2023-05-13T12:07:48;10.07;;;5.93;;
7181;SDS011;3632;42.724;23.298;2023-05-13T12:10:15;7.93;;;5.50;;
7181;SDS011;3632;42.724;23.298;2023-05-13T12:12:42;9.63;;;5.73;;
7181;SDS011;3632;42.724;23.298;2023-05-13T12:15:10;8.87;;;6.67;;
7181;SDS011;3632;42.724;23.298;2023-05-13T12:17:39;8.87;;;6.47;;
7181;SDS011;3632;42.724;23.298;2023-05-13T12:20:06;8.33;;;5.40;;
7181;SDS011;3632;42.724;23.298;2023-05-13T12:22:35;8.17;;;6.60;;
7181;SDS011;3632;42.724;23.298;2023-05-13T12:28:10;10.83;;;5.80;;
7181;SDS011;3632;42.724;23.298;2023-05-13T12:30:41;15.30;;;9.63;;
7181;SDS011;3632;42.724;23.298;2023-05-13T12:33:13;6.53;;;4.83;;
7181;SDS011;3632;42.724;23.298;2023-05-13T12:35:41;8.20;;;5.67;;
7181;SDS011;3632;42.724;23.298;2023-05-13T12:38:12;5.53;;;4.80;;
7181;SDS011;3632;42.724;23.298;2023-05-13T12:40:43;5.00;;;4.40;;
7181;SDS011;3632;42.724;23.298;2023-05-13T12:43:10;6.20;;;5.57;;
7181;SDS011;3632;42.724;23.298;2023-05-13T12:45:41;8.73;;;4.67;;
7181;SDS011;3632;42.724;23.298;2023-05-13T12:48:12;9.13;;;4.83;;
7181;SDS011;3632;42.724;23.298;2023-05-13T12:50:41;7.47;;;4.90;;
7181;SDS011;3632;42.724;23.298;2023-05-13T12:53:08;7.37;;;4.77;;
7181;SDS011;3632;42.724;23.298;2023-05-13T12:55:38;6.03;;;5.20;;
7181;SDS011;3632;42.724;23.298;2023-05-13T12:58:07;6.77;;;5.27;;
7181;SDS011;3632;42.724;23.298;2023-05-13T13:00:36;8.80;;;5.70;;
7181;SDS011;3632;42.724;23.298;2023-05-13T13:03:03;6.03;;;5.07;;
7181;SDS011;3632;42.724;23.298;2023-05-13T13:05:31;6.10;;;5.00;;
7181;SDS011;3632;42.724;23.298;2023-05-13T13:07:58;6.97;;;5.00;;
7181;SDS011;3632;42.724;23.298;2023-05-13T13:10:26;8.93;;;6.50;;
7181;SDS011;3632;42.724;23.298;2023-05-13T13:12:56;6.17;;;5.17;;
7181;SDS011;3632;42.724;23.298;2023-05-13T13:15:24;6.97;;;5.37;;
7181;SDS011;3632;42.724;23.298;2023-05-13T13:17:51;10.73;;;5.50;;
7181;SDS011;3632;42.724;23.298;2023-05-13T13:20:18;9.27;;;7.60;;
7181;SDS011;3632;42.724;23.298;2023-05-13T13:22:46;7.13;;;5.50;;
7181;SDS011;3632;42.724;23.298;2023-05-13T13:25:13;8.07;;;5.53;;
7181;SDS011;3632;42.724;23.298;2023-05-13T13:27:42;6.60;;;4.43;;
7181;SDS011;3632;42.724;23.298;2023-05-13T13:30:10;5.60;;;4.93;;
7181;SDS011;3632;42.724;23.298;2023-05-13T13:32:41;5.47;;;4.90;;
7181;SDS011;3632;42.724;23.298;2023-05-13T13:35:10;6.47;;;5.57;;
7181;SDS011;3632;42.724;23.298;2023-05-13T13:37:42;6.17;;;5.63;;
7181;SDS011;3632;42.724;23.298;2023-05-13T13:40:11;5.90;;;4.50;;
7181;SDS011;3632;42.724;23.298;2023-05-13T13:42:39;7.73;;;5.43;;
7181;SDS011;3632;42.724;23.298;2023-05-13T13:45:06;10.20;;;4.47;;
7181;SDS011;3632;42.724;23.298;2023-05-13T13:47:34;6.47;;;4.60;;
7181;SDS011;3632;42.724;23.298;2023-05-13T13:50:03;7.10;;;5.17;;
7181;SDS011;3632;42.724;23.298;2023-05-13T13:52:30;7.13;;;4.63;;
7181;SDS011;3632;42.724;23.298;2023-05-13T13:54:57;5.17;;;4.67;;
7181;SDS011;3632;42.724;23.298;2023-05-13T13:57:23;9.07;;;7.70;;
7181;SDS011;3632;42.724;23.298;2023-05-13T13:59:50;5.57;;;4.73;;
7181;SDS011;3632;42.724;23.298;2023-05-13T14:02:20;6.93;;;5.07;;
7181;SDS011;3632;42.724;23.298;2023-05-13T14:04:50;6.30;;;5.10;;
7181;SDS011;3632;42.724;23.298;2023-05-13T14:07:19;5.80;;;4.87;;
7181;SDS011;3632;42.724;23.298;2023-05-13T14:09:46;6.70;;;4.97;;
7181;SDS011;3632;42.724;23.298;2023-05-13T14:12:17;4.97;;;4.07;;
7181;SDS011;3632;42.724;23.298;2023-05-13T14:14:44;7.17;;;4.27;;
7181;SDS011;3632;42.724;23.298;2023-05-13T14:17:10;4.43;;;4.00;;
7181;SDS011;3632;42.724;23.298;2023-05-13T14:19:37;5.43;;;4.90;;
7181;SDS011;3632;42.724;23.298;2023-05-13T14:22:04;7.87;;;6.10;;
7181;SDS011;3632;42.724;23.298;2023-05-13T14:24:35;6.93;;;4.57;;
7181;SDS011;3632;42.724;23.298;2023-05-13T14:27:03;6.63;;;5.20;;
7181;SDS011;3632;42.724;23.298;2023-05-13T14:29:30;7.37;;;4.73;;
7181;SDS011;3632;42.724;23.298;2023-05-13T14:31:57;18.23;;;13.87;;
7181;SDS011;3632;42.724;23.298;2023-05-13T14:34:25;5.73;;;4.93;;
7181;SDS011;3632;42.724;23.298;2023-05-13T14:36:52;5.63;;;4.20;;
7181;SDS011;3632;42.724;23.298;2023-05-13T14:39:19;7.10;;;6.03;;
7181;SDS011;3632;42.724;23.298;2023-05-13T14:41:47;5.53;;;4.30;;
7181;SDS011;3632;42.724;23.298;2023-05-13T14:44:14;4.50;;;4.10;;
7181;SDS011;3632;42.724;23.298;2023-05-13T14:46:41;6.50;;;4.87;;
7181;SDS011;3632;42.724;23.298;2023-05-13T14:49:08;5.97;;;4.20;;
7181;SDS011;3632;42.724;23.298;2023-05-13T14:51:35;6.90;;;4.37;;
7181;SDS011;3632;42.724;23.298;2023-05-13T14:54:03;5.23;;;4.60;;
7181;SDS011;3632;42.724;23.298;2023-05-13T14:56:30;5.57;;;3.90;;
7181;SDS011;3632;42.724;23.298;2023-05-13T14:58:58;8.13;;;5.17;;
7181;SDS011;3632;42.724;23.298;2023-05-13T15:01:26;5.30;;;4.43;;
7181;SDS011;3632;42.724;23.298;2023-05-13T15:03:53;5.97;;;4.60;;
7181;SDS011;3632;42.724;23.298;2023-05-13T15:06:22;6.17;;;5.33;;
7181;SDS011;3632;42.724;23.298;2023-05-13T15:08:48;6.37;;;4.20;;
7181;SDS011;3632;42.724;23.298;2023-05-13T15:11:16;5.70;;;4.50;;
7181;SDS011;3632;42.724;23.298;2023-05-13T15:13:43;7.53;;;4.70;;
7181;SDS011;3632;42.724;23.298;2023-05-13T15:16:11;6.90;;;4.40;;
7181;SDS011;3632;42.724;23.298;2023-05-13T15:18:37;6.67;;;4.50;;